Time;durP1;ratioP1;P1;durP2;ratioP2;P2;SDS_P1;SDS_P2;PMS_P1;PMS_P2;Temp;Humidity;BMP_temperature;BMP_pressure;BME280_temperature;BME280_humidity;BME280_pressure;Samples;Min_cycle;Max_cycle;Signal;HPM_P1;HPM_P2
2023/09/09 00:01:23;;;;;;;12.10;7.10;;;17.70;99.90;;;;;;4979297;28;20267;-77
2023/09/09 00:03:49;;;;;;;9.48;7.32;;;17.60;99.90;;;;;;4996477;28;20178;-78
2023/09/09 00:06:21;;;;;;;11.23;7.38;;;17.60;99.90;;;;;;4977455;28;20192;-79
2023/09/09 00:08:50;;;;;;;11.23;8.30;;;17.60;99.90;;;;;;4978634;28;20260;-78
2023/09/09 00:11:16;;;;;;;10.40;8.68;;;17.50;99.90;;;;;;4995621;28;20172;-78
2023/09/09 00:13:41;;;;;;;15.15;9.40;;;17.40;99.90;;;;;;4978163;28;20187;-79
2023/09/09 00:16:10;;;;;;;12.93;8.63;;;17.40;99.90;;;;;;4978624;28;20201;-78
2023/09/09 00:18:39;;;;;;;13.93;9.77;;;17.40;99.90;;;;;;4977073;28;20247;-78
2023/09/09 00:21:08;;;;;;;11.60;9.45;;;17.30;99.90;;;;;;4981436;28;20534;-78
2023/09/09 00:23:33;;;;;;;14.20;9.63;;;17.30;99.90;;;;;;4998556;28;20271;-78
2023/09/09 00:25:59;;;;;;;12.02;8.95;;;17.20;99.90;;;;;;5012888;28;20288;-78
2023/09/09 00:28:30;;;;;;;11.70;8.63;;;17.20;99.90;;;;;;4980769;28;20231;-78
2023/09/09 00:30:56;;;;;;;10.05;8.27;;;17.20;99.90;;;;;;4980410;28;20176;-78
2023/09/09 00:33:22;;;;;;;13.88;7.85;;;17.10;99.90;;;;;;4980609;28;20314;-78
2023/09/09 00:35:50;;;;;;;11.27;7.70;;;17.10;99.90;;;;;;4997779;28;20251;-78
2023/09/09 00:38:20;;;;;;;13.38;7.65;;;17.00;99.90;;;;;;4981693;28;20616;-78
2023/09/09 00:41:10;;;;;;;9.30;7.18;;;17.10;99.90;;;;;;5001374;28;20646;-78
2023/09/09 00:43:40;;;;;;;11.00;7.32;;;17.10;99.90;;;;;;4981813;28;20186;-78
2023/09/09 00:46:07;;;;;;;13.65;8.25;;;17.10;99.90;;;;;;5012606;28;20197;-78
2023/09/09 00:48:33;;;;;;;12.07;8.63;;;17.20;99.90;;;;;;4997526;28;20207;-78
2023/09/09 00:51:14;;;;;;;12.25;9.02;;;17.10;99.90;;;;;;4980176;28;20235;-78
2023/09/09 00:53:41;;;;;;;11.13;9.27;;;17.10;99.90;;;;;;4980324;28;20183;-78
2023/09/09 00:56:13;;;;;;;13.70;9.27;;;17.10;99.90;;;;;;4980067;28;20196;-78
2023/09/09 00:58:38;;;;;;;11.27;9.18;;;17.10;99.90;;;;;;5012364;28;20236;-79
2023/09/09 01:01:05;;;;;;;13.73;9.77;;;17.10;99.90;;;;;;4997358;28;20180;-78
2023/09/09 01:03:31;;;;;;;12.50;10.75;;;17.10;99.90;;;;;;4979694;28;20180;-78
2023/09/09 01:05:57;;;;;;;12.07;9.63;;;17.10;99.90;;;;;;4997201;28;20648;-78
2023/09/09 01:08:28;;;;;;;12.00;10.35;;;17.00;99.90;;;;;;4979980;28;20192;-78
2023/09/09 01:10:54;;;;;;;13.13;10.32;;;17.00;99.90;;;;;;4979667;28;20180;-79
2023/09/09 01:13:32;;;;;;;18.00;11.80;;;17.00;99.90;;;;;;4979499;28;20316;-79
2023/09/09 01:15:58;;;;;;;13.55;11.20;;;17.00;99.90;;;;;;4979795;28;20291;-79
2023/09/09 01:18:24;;;;;;;13.45;11.43;;;16.90;99.90;;;;;;5011988;28;20412;-78
2023/09/09 01:20:58;;;;;;;12.80;10.38;;;16.90;99.90;;;;;;4979603;28;20184;-78
2023/09/09 01:23:27;;;;;;;12.23;9.93;;;16.90;99.90;;;;;;4979676;28;20259;-78
2023/09/09 01:25:52;;;;;;;16.00;9.77;;;16.90;99.90;;;;;;5011736;28;20293;-78
2023/09/09 01:28:22;;;;;;;12.32;10.65;;;16.90;99.90;;;;;;4996837;28;20200;-78
2023/09/09 01:30:51;;;;;;;14.55;10.48;;;16.80;99.90;;;;;;4979032;28;20216;-78
2023/09/09 01:33:20;;;;;;;13.93;9.93;;;16.80;99.90;;;;;;4979273;28;20180;-78
2023/09/09 01:35:53;;;;;;;14.05;9.93;;;16.70;99.90;;;;;;4979130;28;20208;-78
2023/09/09 01:38:19;;;;;;;11.27;9.38;;;16.70;99.90;;;;;;5011712;28;20204;-78
2023/09/09 01:40:45;;;;;;;15.70;11.25;;;16.70;99.90;;;;;;4979260;28;20177;-78
2023/09/09 01:43:20;;;;;;;12.80;10.45;;;16.70;99.90;;;;;;4979098;28;20525;-78
2023/09/09 01:45:45;;;;;;;15.18;10.85;;;16.70;99.90;;;;;;4996607;28;20196;-78
2023/09/09 01:48:25;;;;;;;14.10;10.85;;;16.70;99.90;;;;;;4997197;28;20581;-78
2023/09/09 01:50:51;;;;;;;13.00;11.05;;;16.70;99.90;;;;;;5012395;28;20192;-79
2023/09/09 01:53:17;;;;;;;17.98;10.57;;;16.70;99.90;;;;;;5015405;28;20279;-80
2023/09/09 01:55:43;;;;;;;18.92;10.30;;;16.70;99.90;;;;;;5000607;28;20548;-79
2023/09/09 01:58:08;;;;;;;11.63;9.73;;;16.60;99.90;;;;;;4983256;28;20208;-79
2023/09/09 02:00:34;;;;;;;12.60;8.23;;;16.50;99.90;;;;;;4983544;28;20180;-79
2023/09/09 02:03:00;;;;;;;10.40;7.45;;;16.40;99.90;;;;;;5000734;28;20181;-80
2023/09/09 02:05:28;;;;;;;8.95;7.43;;;16.30;99.90;;;;;;5000228;28;20199;-79
2023/09/09 02:07:57;;;;;;;10.02;7.75;;;16.30;99.90;;;;;;4986999;28;20211;-79
2023/09/09 02:10:26;;;;;;;8.30;7.10;;;16.30;99.90;;;;;;4983899;28;20239;-79
2023/09/09 02:12:52;;;;;;;11.05;7.68;;;16.20;99.90;;;;;;5000210;28;20215;-79
2023/09/09 02:15:18;;;;;;;10.05;7.53;;;16.10;99.90;;;;;;4982672;28;20563;-80
2023/09/09 02:17:52;;;;;;;11.82;7.45;;;16.00;99.90;;;;;;4983144;28;20280;-80
2023/09/09 02:20:27;;;;;;;10.63;7.72;;;16.00;99.90;;;;;;4982513;28;20179;-79
2023/09/09 02:22:52;;;;;;;12.52;7.68;;;15.90;99.90;;;;;;4982814;28;20515;-81
2023/09/09 02:25:21;;;;;;;12.63;7.75;;;15.80;99.90;;;;;;4999878;28;20330;-79
2023/09/09 02:27:47;;;;;;;10.55;7.93;;;15.80;99.90;;;;;;4982906;28;20165;-79
2023/09/09 02:30:15;;;;;;;7.80;6.82;;;15.70;99.90;;;;;;4999629;28;20193;-79
2023/09/09 02:32:49;;;;;;;11.70;7.28;;;15.70;99.90;;;;;;5000379;28;20698;-81
2023/09/09 02:35:17;;;;;;;10.75;7.30;;;15.60;99.90;;;;;;4982540;28;20279;-79
2023/09/09 02:37:45;;;;;;;9.00;6.80;;;15.60;99.90;;;;;;5000126;28;20684;-80
2023/09/09 02:40:14;;;;;;;9.80;6.63;;;15.70;99.90;;;;;;4982664;28;20188;-80
2023/09/09 02:42:40;;;;;;;11.15;7.15;;;15.70;99.90;;;;;;4981592;28;20176;-79
2023/09/09 02:45:06;;;;;;;10.23;7.55;;;15.60;99.90;;;;;;4982351;28;20319;-79
2023/09/09 02:47:32;;;;;;;9.68;7.68;;;15.60;99.90;;;;;;4982332;28;20284;-80
2023/09/09 02:49:58;;;;;;;9.05;7.75;;;15.50;99.90;;;;;;4982512;28;20641;-79
2023/09/09 02:52:23;;;;;;;10.90;7.25;;;15.50;99.90;;;;;;4982093;28;20187;-79
2023/09/09 02:54:52;;;;;;;13.32;8.32;;;15.50;99.90;;;;;;4985204;28;20200;-79
2023/09/09 02:57:18;;;;;;;10.55;7.40;;;15.50;99.90;;;;;;4982392;28;20211;-80
2023/09/09 02:59:44;;;;;;;9.65;7.93;;;15.40;99.90;;;;;;4981699;28;20192;-80
2023/09/09 03:02:09;;;;;;;13.27;9.68;;;15.40;99.90;;;;;;4981861;28;20177;-80
2023/09/09 03:04:35;;;;;;;9.65;7.63;;;15.40;99.90;;;;;;4981598;28;20185;-79
2023/09/09 03:07:01;;;;;;;10.13;7.88;;;15.30;99.90;;;;;;4999542;28;20177;-80
2023/09/09 03:09:31;;;;;;;10.52;8.15;;;15.40;99.90;;;;;;5014281;28;20181;-80
2023/09/09 03:11:57;;;;;;;10.15;7.38;;;15.40;99.90;;;;;;4981698;28;20612;-80
2023/09/09 03:14:47;;;;;;;12.07;7.63;;;15.40;99.90;;;;;;4981639;28;20209;-79
2023/09/09 03:17:19;;;;;;;14.82;9.70;;;15.40;99.90;;;;;;4981156;28;20200;-80
2023/09/09 03:19:45;;;;;;;11.32;8.60;;;15.50;99.90;;;;;;4991554;28;20199;-79
2023/09/09 03:22:10;;;;;;;11.45;8.10;;;15.50;99.90;;;;;;4990613;28;20176;-79
2023/09/09 03:24:39;;;;;;;13.30;9.70;;;15.50;99.90;;;;;;4980086;28;20182;-79
2023/09/09 03:27:08;;;;;;;10.38;8.70;;;15.50;99.90;;;;;;4979072;28;20192;-79
2023/09/09 03:29:36;;;;;;;11.75;9.95;;;15.50;99.90;;;;;;4996140;28;20594;-80
2023/09/09 03:32:02;;;;;;;14.27;11.07;;;15.50;99.90;;;;;;4979564;28;20180;-80
2023/09/09 03:34:34;;;;;;;12.77;10.80;;;15.50;99.90;;;;;;4997000;28;20615;-80
2023/09/09 03:36:59;;;;;;;11.35;9.20;;;15.60;99.90;;;;;;4979677;28;20255;-79
2023/09/09 03:39:30;;;;;;;10.73;9.00;;;15.60;99.90;;;;;;4979827;28;20165;-80
2023/09/09 03:41:56;;;;;;;13.20;9.45;;;15.50;99.90;;;;;;4980346;28;20263;-80
2023/09/09 03:44:24;;;;;;;11.20;8.80;;;15.40;99.90;;;;;;4979952;28;20219;-79
2023/09/09 03:46:56;;;;;;;9.65;8.25;;;15.30;99.90;;;;;;4979826;28;20185;-79
2023/09/09 03:49:22;;;;;;;11.95;8.35;;;15.30;99.90;;;;;;4997692;28;20222;-79
2023/09/09 03:51:47;;;;;;;11.52;8.20;;;15.20;99.90;;;;;;4979978;28;20181;-79
2023/09/09 03:54:13;;;;;;;11.93;7.80;;;15.20;99.90;;;;;;4999968;28;20270;-80
2023/09/09 03:56:39;;;;;;;9.57;7.95;;;15.10;99.90;;;;;;4982513;28;20733;-79
2023/09/09 03:59:05;;;;;;;12.90;7.97;;;15.10;99.90;;;;;;4999077;28;20172;-79
2023/09/09 04:01:31;;;;;;;11.10;7.97;;;15.00;99.90;;;;;;4981313;28;20525;-79
2023/09/09 04:04:00;;;;;;;13.52;8.25;;;15.00;99.90;;;;;;4980958;28;20181;-79
2023/09/09 04:06:27;;;;;;;10.77;8.13;;;15.00;99.90;;;;;;5012140;28;20248;-79
2023/09/09 04:08:56;;;;;;;9.95;8.05;;;15.00;99.90;;;;;;4999840;28;20271;-80
2023/09/09 04:11:22;;;;;;;10.55;8.35;;;14.90;99.90;;;;;;4981817;28;20664;-79
2023/09/09 04:13:48;;;;;;;11.55;8.00;;;15.00;99.90;;;;;;4982473;28;20204;-80
2023/09/09 04:16:14;;;;;;;11.77;8.15;;;14.90;99.90;;;;;;4981568;28;20634;-79
2023/09/09 04:18:40;;;;;;;9.95;8.73;;;14.90;99.90;;;;;;4981579;28;20311;-79
2023/09/09 04:21:06;;;;;;;11.00;9.02;;;14.90;99.90;;;;;;4999358;28;20236;-79
2023/09/09 04:23:32;;;;;;;11.38;8.93;;;15.00;99.90;;;;;;4981669;28;20187;-79
2023/09/09 04:26:06;;;;;;;9.90;7.85;;;15.10;99.90;;;;;;4981805;28;20196;-80
2023/09/09 04:28:31;;;;;;;10.77;8.48;;;15.00;99.90;;;;;;4981938;28;20305;-80
2023/09/09 04:30:57;;;;;;;9.95;8.18;;;15.00;99.90;;;;;;4982122;28;20199;-80
2023/09/09 04:33:23;;;;;;;11.95;8.25;;;14.90;99.90;;;;;;4981668;28;20571;-79
2023/09/09 04:35:49;;;;;;;9.63;7.95;;;15.00;99.90;;;;;;4981153;28;20247;-79
2023/09/09 04:38:15;;;;;;;13.77;10.02;;;15.00;99.90;;;;;;4999229;28;20200;-80
2023/09/09 04:40:41;;;;;;;12.75;10.30;;;15.00;99.90;;;;;;4999313;28;20202;-80
2023/09/09 04:43:12;;;;;;;14.60;10.57;;;15.00;99.90;;;;;;4982597;28;20173;-79
2023/09/09 04:45:38;;;;;;;13.35;10.70;;;15.10;99.90;;;;;;4981591;28;20216;-79
2023/09/09 04:48:05;;;;;;;13.30;11.35;;;15.10;99.90;;;;;;4982098;28;20639;-79
2023/09/09 04:50:30;;;;;;;14.48;11.27;;;15.10;99.90;;;;;;4981244;28;20230;-79
2023/09/09 04:53:08;;;;;;;14.88;10.13;;;15.10;99.90;;;;;;4981787;28;20177;-80
2023/09/09 04:55:34;;;;;;;13.73;10.50;;;15.10;99.90;;;;;;4999239;28;20200;-79
2023/09/09 04:58:00;;;;;;;13.25;8.52;;;15.00;99.90;;;;;;4999078;28;20196;-80
2023/09/09 05:00:26;;;;;;;11.00;9.13;;;14.90;99.90;;;;;;4999101;28;20168;-80
2023/09/09 05:02:51;;;;;;;9.90;8.90;;;14.90;99.90;;;;;;4999626;28;20586;-79
2023/09/09 05:05:17;;;;;;;10.90;8.82;;;14.80;99.90;;;;;;5013327;28;20212;-79
2023/09/09 05:07:43;;;;;;;10.27;8.50;;;14.70;99.90;;;;;;4999035;28;20191;-80
2023/09/09 05:10:09;;;;;;;10.63;9.00;;;14.70;99.90;;;;;;5014513;28;20176;-80
2023/09/09 05:12:36;;;;;;;11.75;8.65;;;14.70;99.90;;;;;;5015196;28;20177;-79
2023/09/09 05:15:04;;;;;;;12.02;8.88;;;14.60;99.90;;;;;;4982099;28;20246;-79
2023/09/09 05:17:30;;;;;;;10.23;8.35;;;14.70;99.90;;;;;;4982165;28;20251;-79
2023/09/09 05:19:56;;;;;;;10.43;7.70;;;14.70;99.90;;;;;;4981874;28;20177;-79
2023/09/09 05:22:33;;;;;;;10.02;7.32;;;14.70;99.90;;;;;;5014767;28;20184;-80
2023/09/09 05:25:08;;;;;;;11.75;8.25;;;14.80;99.90;;;;;;4981838;28;20673;-79
2023/09/09 05:27:34;;;;;;;9.65;7.38;;;14.90;99.90;;;;;;4983011;28;20188;-80
2023/09/09 05:30:03;;;;;;;9.32;7.78;;;14.90;99.90;;;;;;4982002;28;20180;-80
2023/09/09 05:32:29;;;;;;;10.82;7.70;;;15.00;99.90;;;;;;4982717;28;20188;-80
2023/09/09 05:34:57;;;;;;;11.57;8.45;;;15.10;99.90;;;;;;4999099;28;20200;-79
2023/09/09 05:37:31;;;;;;;16.80;9.15;;;15.10;99.90;;;;;;4999370;28;20258;-79
2023/09/09 05:40:12;;;;;;;10.95;8.10;;;15.10;99.90;;;;;;4981992;28;20184;-80
2023/09/09 05:42:39;;;;;;;10.70;8.25;;;15.10;99.90;;;;;;4983226;28;20536;-79
2023/09/09 05:45:06;;;;;;;11.02;8.45;;;15.20;99.90;;;;;;4982838;28;20196;-79
2023/09/09 05:47:31;;;;;;;11.95;8.65;;;15.20;99.90;;;;;;4981366;28;20202;-79
2023/09/09 05:49:57;;;;;;;13.88;8.88;;;15.30;99.90;;;;;;4979572;28;20636;-78
2023/09/09 05:52:23;;;;;;;12.70;8.93;;;15.30;99.90;;;;;;4980021;28;20242;-79
2023/09/09 05:54:50;;;;;;;11.20;8.82;;;15.30;99.90;;;;;;4980790;28;20196;-79
2023/09/09 05:57:16;;;;;;;11.93;8.80;;;15.40;99.90;;;;;;4980446;28;20215;-80
2023/09/09 05:59:42;;;;;;;10.60;8.88;;;15.40;99.90;;;;;;4980699;28;20177;-79
2023/09/09 06:02:08;;;;;;;13.98;11.25;;;15.50;99.90;;;;;;4979877;28;20172;-80
2023/09/09 06:04:33;;;;;;;14.95;10.93;;;15.60;99.90;;;;;;5014102;28;20636;-77
2023/09/09 06:06:59;;;;;;;16.75;10.93;;;15.70;99.90;;;;;;4980816;28;20186;-79
2023/09/09 06:09:28;;;;;;;11.57;10.35;;;15.70;99.90;;;;;;5013288;28;20207;-78
2023/09/09 06:11:54;;;;;;;15.57;10.00;;;15.80;99.90;;;;;;4996821;28;20243;-78
2023/09/09 06:14:21;;;;;;;16.25;10.82;;;15.80;99.90;;;;;;4978970;28;20555;-76
2023/09/09 06:16:47;;;;;;;12.20;9.98;;;15.80;99.90;;;;;;4996010;28;20196;-78
2023/09/09 06:19:13;;;;;;;13.02;10.65;;;15.90;99.90;;;;;;4998227;28;20196;-77
2023/09/09 06:21:45;;;;;;;13.13;10.45;;;16.10;99.90;;;;;;4980173;28;20235;-78
2023/09/09 06:24:14;;;;;;;12.85;10.80;;;16.10;99.90;;;;;;5013010;28;20227;-79
2023/09/09 06:26:40;;;;;;;12.05;9.88;;;16.20;99.90;;;;;;4981352;28;20197;-79
2023/09/09 06:29:06;;;;;;;11.82;9.80;;;16.30;99.90;;;;;;5012913;28;20177;-77
2023/09/09 06:31:31;;;;;;;12.52;10.18;;;16.40;99.90;;;;;;4997824;28;20188;-77
2023/09/09 06:34:04;;;;;;;11.48;8.95;;;16.50;99.90;;;;;;4987115;28;20553;-80
2023/09/09 06:36:30;;;;;;;12.68;10.00;;;16.60;99.90;;;;;;4985440;28;20308;-79
2023/09/09 06:38:55;;;;;;;11.48;9.70;;;16.70;99.90;;;;;;5000930;28;20224;-79
2023/09/09 06:41:21;;;;;;;13.18;8.63;;;16.80;99.90;;;;;;4984622;28;20546;-79
2023/09/09 06:43:50;;;;;;;12.65;9.35;;;16.90;99.90;;;;;;4983316;28;20177;-79
2023/09/09 06:46:16;;;;;;;12.75;9.85;;;16.90;99.90;;;;;;4983395;28;20206;-79
2023/09/09 06:48:42;;;;;;;17.98;12.50;;;17.10;99.90;;;;;;4982916;28;20291;-79
2023/09/09 06:51:08;;;;;;;16.20;12.77;;;17.20;99.90;;;;;;5000044;28;20263;-78
2023/09/09 06:53:40;;;;;;;12.20;10.48;;;17.30;99.90;;;;;;4982635;28;20199;-79
2023/09/09 06:56:05;;;;;;;13.70;11.93;;;17.40;99.90;;;;;;4982442;28;20219;-79
2023/09/09 06:58:32;;;;;;;16.55;12.10;;;17.50;99.90;;;;;;4982706;28;20556;-79
2023/09/09 07:00:58;;;;;;;13.77;10.93;;;17.60;99.90;;;;;;4983002;28;20184;-79
2023/09/09 07:03:24;;;;;;;18.23;13.18;;;17.60;99.90;;;;;;4983834;28;20177;-79
2023/09/09 07:05:49;;;;;;;13.48;10.57;;;17.70;99.90;;;;;;4982462;28;20235;-79
2023/09/09 07:08:16;;;;;;;13.15;10.98;;;17.80;99.90;;;;;;4982601;28;20208;-79
2023/09/09 07:10:51;;;;;;;14.05;10.50;;;17.90;99.90;;;;;;5014470;28;20187;-79
2023/09/09 07:13:21;;;;;;;16.45;11.43;;;18.10;99.90;;;;;;4981893;28;20184;-79
2023/09/09 07:15:56;;;;;;;12.45;10.52;;;18.20;99.90;;;;;;4999275;28;20304;-78
2023/09/09 07:18:30;;;;;;;13.15;9.63;;;18.30;99.90;;;;;;4999339;28;20348;-79
2023/09/09 07:20:59;;;;;;;12.30;10.07;;;18.50;99.90;;;;;;4981471;28;20184;-79
2023/09/09 07:23:25;;;;;;;13.95;11.18;;;18.60;99.90;;;;;;4982834;28;20185;-79
2023/09/09 07:25:52;;;;;;;14.35;10.73;;;18.70;99.90;;;;;;5001372;28;20204;-79
2023/09/09 07:28:18;;;;;;;18.55;12.15;;;18.80;99.90;;;;;;5002251;28;20169;-79
2023/09/09 07:30:46;;;;;;;12.70;9.80;;;19.00;99.90;;;;;;4984756;28;20188;-79
2023/09/09 07:33:11;;;;;;;12.85;11.23;;;19.10;99.90;;;;;;4983888;28;20262;-79
2023/09/09 07:35:38;;;;;;;12.48;10.10;;;19.20;99.90;;;;;;4983501;28;20204;-79
2023/09/09 07:38:07;;;;;;;12.90;10.50;;;19.30;99.90;;;;;;5001187;28;20192;-79
2023/09/09 07:40:42;;;;;;;14.25;11.50;;;19.40;99.90;;;;;;4983791;28;20208;-79
2023/09/09 07:43:08;;;;;;;10.55;9.13;;;19.50;99.90;;;;;;4982880;28;20529;-79
2023/09/09 07:45:33;;;;;;;11.05;9.60;;;19.60;99.90;;;;;;5000705;28;20279;-79
2023/09/09 07:47:59;;;;;;;13.32;9.73;;;19.70;99.90;;;;;;4982867;28;20558;-79
2023/09/09 07:50:25;;;;;;;12.88;10.85;;;19.80;99.90;;;;;;4982794;28;20187;-79
2023/09/09 07:53:00;;;;;;;11.15;9.60;;;19.90;99.90;;;;;;4983275;28;20673;-79
2023/09/09 07:55:26;;;;;;;13.80;8.52;;;20.00;99.90;;;;;;4983717;28;20655;-79
2023/09/09 07:57:51;;;;;;;10.80;8.68;;;20.00;99.90;;;;;;4982926;28;20216;-79
2023/09/09 08:00:17;;;;;;;10.32;7.93;;;20.10;99.90;;;;;;4983021;28;20176;-79
2023/09/09 08:02:43;;;;;;;10.98;9.07;;;20.20;99.90;;;;;;5001249;28;20188;-79
2023/09/09 08:05:09;;;;;;;10.18;9.00;;;20.20;99.90;;;;;;4983884;28;20235;-78
2023/09/09 08:07:35;;;;;;;10.70;8.43;;;20.30;99.90;;;;;;5002541;28;20171;-79
2023/09/09 08:10:00;;;;;;;9.80;7.97;;;20.40;99.90;;;;;;5002508;28;20204;-79
2023/09/09 08:12:29;;;;;;;14.10;9.43;;;20.50;99.90;;;;;;5012671;28;20180;-79
2023/09/09 08:15:17;;;;;;;10.23;8.30;;;20.70;99.90;;;;;;4988450;28;20570;-79
2023/09/09 08:17:43;;;;;;;10.80;8.77;;;20.90;99.90;;;;;;5000662;28;20199;-79
2023/09/09 08:20:09;;;;;;;9.88;7.93;;;21.00;99.90;;;;;;4981416;28;20193;-79
2023/09/09 08:22:36;;;;;;;10.07;8.52;;;21.30;99.90;;;;;;4981226;28;20180;-79
2023/09/09 08:25:02;;;;;;;8.27;7.30;;;21.40;99.90;;;;;;4980647;28;20630;-79
2023/09/09 08:27:28;;;;;;;8.98;7.88;;;21.70;99.90;;;;;;4998714;28;20176;-79
2023/09/09 08:29:56;;;;;;;9.27;7.57;;;22.10;99.90;;;;;;4981317;28;20591;-79
2023/09/09 08:32:24;;;;;;;12.25;7.80;;;22.30;99.90;;;;;;4999148;28;20538;-79
2023/09/09 08:34:56;;;;;;;10.27;7.57;;;22.70;99.90;;;;;;4981051;28;20258;-79
2023/09/09 08:37:21;;;;;;;11.05;7.53;;;23.00;99.90;;;;;;4980334;28;20207;-79
2023/09/09 08:39:52;;;;;;;9.55;7.18;;;23.20;99.90;;;;;;4981161;28;20180;-79
2023/09/09 08:42:39;;;;;;;10.10;7.85;;;23.50;99.90;;;;;;4984459;28;20234;-79
2023/09/09 08:45:41;;;;;;;10.05;7.35;;;23.70;99.90;;;;;;4984817;28;20192;-79
2023/09/09 08:48:10;;;;;;;11.27;7.30;;;24.00;99.90;;;;;;4993769;28;20184;-79
2023/09/09 08:50:43;;;;;;;12.25;7.65;;;24.30;99.90;;;;;;4984558;28;20649;-79
2023/09/09 08:53:17;;;;;;;10.60;7.65;;;24.50;99.90;;;;;;5002868;28;20179;-78
2023/09/09 08:55:43;;;;;;;8.02;6.80;;;24.70;99.90;;;;;;4984538;28;20214;-79
2023/09/09 08:58:09;;;;;;;9.88;7.32;;;24.70;99.90;;;;;;4984821;28;20200;-79
2023/09/09 09:00:37;;;;;;;9.20;7.50;;;24.70;99.90;;;;;;5003085;28;20245;-78
2023/09/09 09:03:04;;;;;;;9.35;6.90;;;24.70;99.90;;;;;;4985154;28;20184;-78
2023/09/09 09:05:35;;;;;;;9.73;7.40;;;24.80;99.90;;;;;;4983560;28;20213;-79
2023/09/09 09:08:01;;;;;;;9.25;7.30;;;24.90;99.90;;;;;;4984704;28;20240;-79
2023/09/09 09:10:27;;;;;;;9.57;7.25;;;24.90;99.90;;;;;;4983679;28;20185;-79
2023/09/09 09:12:53;;;;;;;9.40;7.43;;;25.00;92.60;;;;;;4983825;28;20180;-79
2023/09/09 09:15:30;;;;;;;10.93;7.43;;;25.10;99.90;;;;;;5002408;28;20312;-78
2023/09/09 09:17:56;;;;;;;15.20;7.32;;;25.30;99.90;;;;;;4984738;28;20675;-79
2023/09/09 09:20:28;;;;;;;7.85;6.88;;;25.50;99.90;;;;;;5001618;28;20199;-78
2023/09/09 09:23:18;;;;;;;7.95;7.13;;;25.70;31.50;;;;;;5002896;28;20173;-78
2023/09/09 09:25:49;;;;;;;9.55;7.57;;;25.70;29.10;;;;;;4988432;28;20209;-78
2023/09/09 09:28:15;;;;;;;11.60;7.57;;;25.80;24.10;;;;;;4986191;28;20260;-79
2023/09/09 09:30:42;;;;;;;8.73;7.25;;;25.90;77.60;;;;;;4985073;28;20177;-79
2023/09/09 09:33:13;;;;;;;10.05;6.82;;;26.00;1.00;;;;;;4988132;28;20263;-78
2023/09/09 09:35:42;;;;;;;8.93;7.18;;;26.00;1.00;;;;;;5001849;28;20204;-78
2023/09/09 09:38:09;;;;;;;7.93;6.72;;;26.00;1.00;;;;;;4984420;28;20210;-79
2023/09/09 09:40:36;;;;;;;11.93;7.72;;;26.00;99.90;;;;;;5001225;28;20260;-79
2023/09/09 09:43:02;;;;;;;12.40;7.38;;;26.00;1.00;;;;;;5016223;28;20175;-79
2023/09/09 09:45:29;;;;;;;8.23;6.47;;;26.10;1.00;;;;;;5001828;28;20275;-79
2023/09/09 09:47:57;;;;;;;8.95;6.95;;;26.10;1.00;;;;;;4982929;28;20192;-79
2023/09/09 09:50:30;;;;;;;12.40;7.63;;;26.20;99.90;;;;;;5000538;28;20628;-78
2023/09/09 09:53:06;;;;;;;12.13;7.93;;;26.20;1.00;;;;;;4982918;28;20184;-79
2023/09/09 09:55:36;;;;;;;19.20;8.77;;;26.30;1.00;;;;;;4983599;28;20196;-79
2023/09/09 09:58:06;;;;;;;10.65;8.43;;;26.30;1.00;;;;;;4983445;28;20684;-79
2023/09/09 10:00:32;;;;;;;10.45;7.63;;;26.40;1.00;;;;;;4982730;28;20191;-78
2023/09/09 10:03:02;;;;;;;10.90;7.93;;;26.40;1.00;;;;;;4982937;28;20177;-78
2023/09/09 10:05:33;;;;;;;12.25;8.50;;;26.50;1.00;;;;;;4982876;28;20211;-78
2023/09/09 10:08:23;;;;;;;10.70;8.25;;;26.60;1.00;;;;;;4983617;28;20207;-79
2023/09/09 10:10:59;;;;;;;10.75;8.40;;;26.60;1.00;;;;;;4984363;28;20173;-79
2023/09/09 10:13:40;;;;;;;10.30;8.23;;;26.60;1.00;;;;;;4984410;28;20180;-78
2023/09/09 10:16:06;;;;;;;15.63;8.02;;;26.70;1.00;;;;;;4983496;28;20203;-79
2023/09/09 10:18:35;;;;;;;12.70;7.80;;;26.70;99.90;;;;;;4984063;28;20291;-79
2023/09/09 10:21:04;;;;;;;14.43;8.40;;;26.70;1.00;;;;;;4984171;28;20255;-79
2023/09/09 10:23:30;;;;;;;11.07;7.93;;;26.80;1.00;;;;;;4983787;28;20177;-79
2023/09/09 10:25:57;;;;;;;9.85;7.95;;;26.90;1.00;;;;;;5001913;28;20197;-79
2023/09/09 10:28:25;;;;;;;11.93;8.80;;;26.90;99.90;;;;;;5002008;28;20180;-79
2023/09/09 10:30:53;;;;;;;10.43;8.85;;;27.00;99.90;;;;;;4984363;28;20192;-79
2023/09/09 10:33:20;;;;;;;15.07;9.48;;;27.10;99.90;;;;;;4983728;28;20195;-79
2023/09/09 10:35:47;;;;;;;13.07;8.95;;;27.10;56.40;;;;;;4984263;28;20212;-79
2023/09/09 10:38:14;;;;;;;12.98;9.52;;;27.20;1.00;;;;;;5003015;28;20633;-79
2023/09/09 10:40:41;;;;;;;11.27;8.32;;;27.20;1.00;;;;;;4984705;28;20181;-79
2023/09/09 10:43:07;;;;;;;12.80;8.70;;;27.20;99.90;;;;;;5002272;28;20715;-79
2023/09/09 10:45:41;;;;;;;12.32;10.05;;;27.30;1.00;;;;;;4985674;28;20565;-79
2023/09/09 10:48:10;;;;;;;11.90;8.57;;;27.40;99.90;;;;;;4985100;28;20187;-79
2023/09/09 10:50:46;;;;;;;16.60;8.93;;;27.40;99.90;;;;;;4985186;28;20234;-78
2023/09/09 10:53:31;;;;;;;10.48;8.80;;;27.60;99.90;;;;;;4985392;28;20180;-79
2023/09/09 10:56:15;;;;;;;12.43;8.88;;;27.70;99.90;;;;;;4986713;28;20207;-79
2023/09/09 10:58:44;;;;;;;13.32;8.98;;;27.80;99.90;;;;;;4986160;28;20211;-79
2023/09/09 11:01:24;;;;;;;14.45;8.80;;;27.80;99.90;;;;;;4984456;28;20181;-79
2023/09/09 11:04:00;;;;;;;15.45;8.82;;;27.90;99.90;;;;;;4982890;28;20176;-79
2023/09/09 11:06:31;;;;;;;14.45;9.15;;;28.00;99.90;;;;;;5000270;28;20196;-78
2023/09/09 11:09:00;;;;;;;15.25;8.25;;;28.00;99.90;;;;;;5000464;28;20540;-79
2023/09/09 11:11:31;;;;;;;13.45;7.68;;;28.20;1.00;;;;;;4982486;28;20276;-79
2023/09/09 11:13:57;;;;;;;13.85;8.43;;;28.30;1.00;;;;;;5000084;28;20187;-79
2023/09/09 11:16:37;;;;;;;14.02;8.50;;;28.50;1.00;;;;;;4983225;28;20204;-79
2023/09/09 11:19:10;;;;;;;13.40;7.85;;;28.70;99.90;;;;;;5000276;28;20582;-79
2023/09/09 11:21:50;;;;;;;11.65;7.93;;;28.80;1.00;;;;;;4982556;28;20338;-78
2023/09/09 11:24:17;;;;;;;14.05;7.80;;;28.90;1.00;;;;;;4982576;28;20655;-79
2023/09/09 11:26:55;;;;;;;9.90;6.63;;;29.00;99.90;;;;;;4982036;28;20211;-79
2023/09/09 11:29:24;;;;;;;16.65;7.25;;;29.10;16.60;;;;;;4981966;28;20197;-79
2023/09/09 11:31:53;;;;;;;16.02;7.10;;;29.20;99.90;;;;;;4983255;28;20204;-79
2023/09/09 11:34:29;;;;;;;17.00;6.95;;;29.20;1.00;;;;;;4984239;28;20320;-80
2023/09/09 11:36:55;;;;;;;13.93;7.45;;;29.20;1.00;;;;;;4983374;28;20702;-79
2023/09/09 11:39:23;;;;;;;12.73;7.30;;;29.20;99.90;;;;;;4984387;28;20184;-80
2023/09/09 11:41:52;;;;;;;16.85;7.80;;;29.30;1.00;;;;;;4985398;28;20200;-80
2023/09/09 11:44:18;;;;;;;14.48;7.28;;;29.40;1.00;;;;;;5001215;28;20187;-79
2023/09/09 11:46:46;;;;;;;14.18;6.93;;;29.40;99.90;;;;;;4983067;28;20196;-80
2023/09/09 11:49:12;;;;;;;15.02;6.55;;;29.50;99.90;;;;;;5000147;28;20168;-80
2023/09/09 11:51:38;;;;;;;18.83;7.65;;;29.50;1.00;;;;;;5000334;28;20180;-79
2023/09/09 11:54:08;;;;;;;14.82;7.55;;;29.60;99.90;;;;;;5000727;28;20176;-80
2023/09/09 11:56:34;;;;;;;18.92;7.45;;;29.70;99.90;;;;;;4985089;28;20204;-80
2023/09/09 11:59:09;;;;;;;21.65;7.22;;;29.80;99.90;;;;;;5000997;28;20247;-80
2023/09/09 12:01:46;;;;;;;14.98;6.80;;;30.00;99.90;;;;;;5001667;28;20155;-80
2023/09/09 12:04:19;;;;;;;14.75;6.72;;;30.00;99.90;;;;;;4984749;28;20243;-79
2023/09/09 12:06:50;;;;;;;16.35;6.25;;;30.10;99.90;;;;;;4982319;28;20759;-79
2023/09/09 12:09:17;;;;;;;20.33;6.82;;;30.30;99.90;;;;;;4983839;28;20275;-79
2023/09/09 12:11:44;;;;;;;21.40;6.43;;;30.40;99.90;;;;;;5000533;28;20227;-79
2023/09/09 12:14:14;;;;;;;16.30;7.28;;;30.40;1.00;;;;;;5000790;28;20177;-79
2023/09/09 12:16:40;;;;;;;18.13;6.57;;;30.40;1.00;;;;;;4983599;28;20203;-79
2023/09/09 12:19:12;;;;;;;17.73;7.47;;;30.50;99.90;;;;;;4983050;28;20208;-79
2023/09/09 12:21:48;;;;;;;18.90;7.13;;;30.40;99.90;;;;;;4982747;28;20223;-80
2023/09/09 12:24:17;;;;;;;15.20;6.88;;;30.60;1.00;;;;;;5003778;28;20609;-79
2023/09/09 12:26:53;;;;;;;17.38;6.60;;;31.00;1.00;;;;;;4983305;28;20266;-77
2023/09/09 12:29:19;;;;;;;15.70;6.70;;;31.20;99.90;;;;;;4981247;28;20180;-77
2023/09/09 12:31:57;;;;;;;15.25;6.70;;;31.00;1.00;;;;;;4999231;28;20204;-78
2023/09/09 12:34:24;;;;;;;16.83;6.80;;;30.90;99.90;;;;;;4981983;28;20212;-79
2023/09/09 12:36:54;;;;;;;18.73;6.10;;;31.00;99.90;;;;;;4982124;28;20172;-79
2023/09/09 12:39:25;;;;;;;17.33;6.45;;;31.10;1.00;;;;;;4999998;28;20652;-79
2023/09/09 12:42:01;;;;;;;17.40;6.82;;;31.20;1.00;;;;;;4982560;28;20187;-79
2023/09/09 12:44:29;;;;;;;18.52;6.80;;;31.20;1.00;;;;;;4982494;28;20172;-79
2023/09/09 12:46:55;;;;;;;15.63;6.22;;;31.20;1.00;;;;;;4981750;28;20181;-79